createdAt,value
2019-05-26T00:00:28.071Z,63.09
2019-05-26T00:01:28.045Z,63.09
2019-05-26T00:02:28.038Z,62.59
2019-05-26T00:03:28.023Z,63.29
2019-05-26T00:04:28.015Z,62.45
2019-05-26T00:05:28.057Z,61.74
2019-05-26T00:06:27.993Z,61.54
2019-05-26T00:07:30.841Z,61.95
2019-05-26T00:08:27.971Z,62.48
2019-05-26T00:09:27.960Z,62.08
2019-05-26T00:10:27.951Z,61.67
2019-05-26T00:11:27.992Z,61.87
2019-05-26T00:12:27.929Z,61.47
2019-05-26T00:13:27.920Z,61.47
2019-05-26T00:14:27.907Z,61.98
2019-05-26T00:15:27.896Z,60.96
2019-05-26T00:16:27.889Z,62.18
2019-05-26T00:17:28.028Z,62.59
2019-05-26T00:18:27.867Z,62.59
2019-05-26T00:19:27.856Z,62.18
2019-05-26T00:20:27.846Z,61.77
2019-05-26T00:21:27.833Z,63.00
2019-05-26T00:22:27.822Z,62.59
2019-05-26T00:23:27.867Z,61.98
2019-05-26T00:24:27.802Z,62.28
2019-05-26T00:25:27.793Z,63.17
2019-05-26T00:26:27.780Z,61.34
2019-05-26T00:27:27.774Z,60.60
2019-05-26T00:28:27.759Z,59.15
2019-05-26T00:29:27.797Z,58.59
2019-05-26T00:30:27.739Z,58.59
2019-05-26T00:31:27.727Z,58.56
2019-05-26T00:32:27.716Z,58.28
2019-05-26T00:33:27.707Z,55.67
2019-05-26T00:34:27.698Z,53.19
2019-05-26T00:35:27.746Z,52.38
2019-05-26T00:36:27.676Z,52.56
2019-05-26T00:37:27.662Z,52.26
2019-05-26T00:38:27.653Z,52.56
2019-05-26T00:39:27.647Z,52.76
2019-05-26T00:40:27.784Z,51.45
2019-05-26T00:41:27.619Z,51.75
2019-05-26T00:42:27.611Z,51.25
2019-05-26T00:43:27.601Z,50.92
2019-05-26T00:44:27.594Z,50.82
2019-05-26T00:45:27.580Z,51.20
2019-05-26T00:46:27.622Z,49.96
2019-05-26T00:47:27.560Z,49.26
2019-05-26T00:48:27.559Z,49.74
2019-05-26T00:49:27.537Z,49.14
2019-05-26T00:50:27.525Z,49.84
2019-05-26T00:51:27.514Z,47.93
2019-05-26T00:52:27.602Z,48.71
2019-05-26T00:53:27.497Z,48.51
2019-05-26T00:54:27.483Z,47.71
2019-05-26T00:55:27.473Z,47.99
2019-05-26T00:56:27.463Z,47.66
2019-05-26T00:57:27.451Z,47.32
2019-05-26T00:58:27.590Z,45.98
2019-05-26T00:59:27.430Z,46.39
2019-05-26T01:00:27.420Z,45.77
2019-05-26T01:01:27.416Z,44.76
2019-05-26T01:02:27.401Z,45.74
2019-05-26T01:03:27.391Z,45.74
2019-05-26T01:04:27.435Z,44.84
2019-05-26T01:05:27.370Z,45.01
2019-05-26T01:06:27.359Z,45.30
2019-05-26T01:07:27.348Z,44.84
2019-05-26T01:08:27.338Z,44.84
2019-05-26T01:09:27.325Z,45.34
2019-05-26T01:10:27.366Z,46.27
2019-05-26T01:11:27.304Z,45.78
2019-05-26T01:12:27.299Z,45.77
2019-05-26T01:13:27.285Z,45.24
2019-05-26T01:14:27.273Z,45.74
2019-05-26T01:15:27.261Z,44.82
2019-05-26T01:17:27.391Z,44.70
2019-05-26T01:18:27.233Z,44.39
2019-05-26T01:19:27.221Z,44.50
2019-05-26T01:20:27.210Z,44.59
2019-05-26T01:21:27.198Z,44.58
2019-05-26T01:22:27.191Z,43.57
2019-05-26T01:23:27.231Z,44.09
2019-05-26T01:24:27.167Z,44.07
2019-05-26T01:25:27.159Z,43.67
2019-05-26T01:26:27.145Z,44.25
2019-05-26T01:27:27.134Z,42.65
2019-05-26T01:28:27.129Z,43.43
2019-05-26T01:30:27.157Z,42.51
2019-05-26T01:31:27.096Z,42.23
2019-05-26T01:32:27.087Z,42.63
2019-05-26T01:33:27.075Z,43.11
2019-05-26T01:34:27.066Z,42.21
2019-05-26T01:35:27.054Z,42.31
2019-05-26T01:36:27.092Z,42.39
2019-05-26T01:37:27.034Z,42.19
2019-05-26T01:38:27.024Z,42.27
2019-05-26T01:39:27.015Z,41.57
2019-05-26T01:40:27.001Z,41.45
2019-05-26T01:41:27.141Z,41.59
2019-05-26T01:42:26.981Z,41.57
2019-05-26T01:43:26.976Z,41.87
2019-05-26T01:44:26.960Z,41.37
2019-05-26T01:45:26.962Z,40.95
2019-05-26T01:46:26.940Z,40.65
2019-05-26T01:47:26.978Z,40.75
2019-05-26T01:48:26.921Z,40.83
2019-05-26T01:49:26.910Z,40.61
2019-05-26T01:50:26.899Z,40.31
2019-05-26T01:51:26.891Z,40.10
2019-05-26T01:53:26.919Z,39.36
2019-05-26T01:54:26.860Z,39.24
2019-05-26T01:55:26.847Z,38.12
2019-05-26T01:56:26.837Z,36.71
2019-05-26T01:57:26.830Z,37.51
2019-05-26T01:58:26.967Z,37.93
2019-05-26T01:59:26.809Z,37.13
2019-05-26T02:00:26.798Z,37.46
2019-05-26T02:01:26.788Z,38.58
2019-05-26T02:02:26.774Z,38.60
2019-05-26T02:03:26.837Z,39.59
2019-05-26T02:04:26.804Z,39.18
2019-05-26T02:05:26.750Z,40.10
2019-05-26T02:06:26.735Z,38.78
2019-05-26T02:07:26.727Z,38.76
2019-05-26T02:08:38.807Z,38.14
2019-05-26T02:09:51.563Z,36.58
2019-05-26T02:10:51.551Z,36.16
2019-05-26T02:11:51.544Z,36.54
2019-05-26T02:12:51.532Z,35.50
2019-05-26T02:13:51.522Z,35.55
2019-05-26T02:14:51.661Z,34.54
2019-05-26T02:15:51.502Z,34.11
2019-05-26T02:16:51.493Z,34.29
2019-05-26T02:17:51.491Z,33.89
2019-05-26T02:18:51.473Z,33.39
2019-05-26T02:19:51.461Z,32.28
2019-05-26T02:20:51.529Z,32.76
2019-05-26T02:21:51.443Z,31.76
2019-05-26T02:22:51.435Z,31.09
2019-05-26T02:23:51.423Z,31.68
2019-05-26T02:24:51.429Z,32.09
2019-05-26T02:25:51.404Z,31.29
2019-05-26T02:26:51.504Z,31.69
2019-05-26T02:27:51.389Z,31.78
2019-05-26T02:28:51.376Z,30.70
2019-05-26T02:29:51.368Z,31.79
2019-05-26T02:30:51.358Z,32.15
2019-05-26T02:31:51.347Z,31.96
2019-05-26T02:32:51.488Z,31.68
2019-05-26T02:33:51.326Z,32.40
2019-05-26T02:34:51.325Z,31.82
2019-05-26T02:35:51.309Z,32.84
2019-05-26T02:36:51.311Z,32.73
2019-05-26T02:37:51.288Z,31.95
2019-05-26T02:39:02.045Z,34.01
2019-05-26T02:40:16.092Z,32.10
2019-05-26T02:41:16.066Z,31.97
2019-05-26T02:42:16.066Z,32.15
2019-05-26T02:43:16.046Z,31.15
2019-05-26T02:44:16.087Z,30.59
2019-05-26T02:45:16.039Z,31.09
2019-05-26T02:46:16.014Z,31.87
2019-05-26T02:47:16.004Z,31.87
2019-05-26T02:48:15.992Z,31.55
2019-05-26T02:49:15.980Z,30.85
2019-05-26T02:50:16.125Z,30.65
2019-05-26T02:51:15.964Z,30.94
2019-05-26T02:52:15.965Z,31.53
2019-05-26T02:53:15.941Z,30.24
2019-05-26T02:54:15.932Z,30.73
2019-05-26T02:55:15.923Z,30.62
2019-05-26T02:56:15.960Z,29.81
2019-05-26T02:57:15.901Z,29.71
2019-05-26T02:58:15.900Z,30.60
2019-05-26T02:59:15.883Z,29.70
2019-05-26T03:00:15.871Z,29.19
2019-05-26T03:01:15.860Z,28.87
2019-05-26T03:02:15.902Z,28.27
2019-05-26T03:03:15.851Z,28.93
2019-05-26T03:04:15.834Z,28.24
2019-05-26T03:05:15.821Z,28.90
2019-05-26T03:06:15.811Z,27.42
2019-05-26T03:07:15.802Z,27.12
2019-05-26T03:08:15.958Z,27.60
2019-05-26T03:09:22.598Z,27.18
2019-05-26T03:10:40.587Z,25.98
2019-05-26T03:11:40.576Z,25.87
2019-05-26T03:12:40.561Z,25.36
2019-05-26T03:13:40.605Z,25.64
2019-05-26T03:14:40.545Z,26.03
2019-05-26T03:15:40.533Z,26.43
2019-05-26T03:16:40.529Z,25.64
2019-05-26T03:17:40.513Z,25.45
2019-05-26T03:18:40.509Z,25.55
2019-05-26T03:19:40.544Z,25.65
2019-05-26T03:20:40.514Z,23.41
2019-05-26T03:21:40.475Z,24.76
2019-05-26T03:22:40.464Z,24.85
2019-05-26T03:23:40.454Z,24.93
2019-05-26T03:24:40.443Z,24.25
2019-05-26T03:25:40.585Z,23.37
2019-05-26T03:26:40.426Z,24.45
2019-05-26T03:27:40.417Z,23.68
2019-05-26T03:28:40.405Z,23.29
2019-05-26T03:29:40.396Z,24.37
2019-05-26T03:30:40.389Z,25.92
2019-05-26T03:31:40.427Z,23.38
2019-05-26T03:32:40.373Z,24.16
2019-05-26T03:33:40.365Z,24.47
2019-05-26T03:34:40.347Z,22.64
2019-05-26T03:35:40.338Z,22.72
2019-05-26T03:36:40.332Z,22.70
2019-05-26T03:37:40.372Z,22.40
2019-05-26T03:38:40.309Z,23.64
2019-05-26T03:39:45.237Z,22.27
2019-05-26T03:40:40.287Z,23.34
2019-05-26T03:41:40.282Z,23.05
2019-05-26T03:42:40.272Z,23.73
2019-05-26T03:43:40.411Z,22.55
2019-05-26T03:44:40.250Z,23.32
2019-05-26T03:45:40.244Z,22.93
2019-05-26T03:46:40.232Z,22.53
2019-05-26T03:47:40.222Z,22.53
2019-05-26T03:48:40.213Z,21.86
2019-05-26T03:49:40.252Z,21.48
2019-05-26T03:50:40.198Z,22.35
2019-05-26T03:51:40.182Z,22.17
2019-05-26T03:52:40.175Z,21.97
2019-05-26T03:53:40.163Z,21.80
2019-05-26T03:54:40.164Z,23.25
2019-05-26T03:55:40.194Z,23.54
2019-05-26T03:56:40.132Z,23.35
2019-05-26T03:57:40.128Z,23.25
2019-05-26T03:58:40.110Z,23.06
2019-05-26T03:59:40.108Z,21.03
2019-05-26T04:00:40.093Z,21.63
2019-05-26T04:01:40.242Z,22.52
2019-05-26T04:02:40.071Z,22.02
2019-05-26T04:03:40.073Z,22.02
2019-05-26T04:04:40.057Z,23.38
2019-05-26T04:05:40.043Z,22.61
2019-05-26T04:06:40.039Z,22.52
2019-05-26T04:07:40.074Z,22.03
2019-05-26T04:08:40.018Z,22.13
2019-05-26T04:09:40.013Z,22.43
2019-05-26T04:10:40.040Z,22.93
2019-05-26T04:11:40.031Z,22.26
2019-05-26T04:12:39.978Z,23.33
2019-05-26T04:13:40.018Z,23.43
2019-05-26T04:14:39.957Z,22.85
2019-05-26T04:15:39.945Z,24.32
2019-05-26T04:16:39.940Z,23.63
2019-05-26T04:17:39.927Z,24.12
2019-05-26T04:18:39.917Z,23.63
2019-05-26T04:19:40.060Z,25.37
2019-05-26T04:20:39.900Z,22.63
2019-05-26T04:21:39.891Z,22.22
2019-05-26T04:22:39.883Z,24.07
2019-05-26T04:23:39.869Z,24.36
2019-05-26T04:24:39.862Z,24.45
2019-05-26T04:25:39.899Z,23.95
2019-05-26T04:26:39.841Z,24.82
2019-05-26T04:27:39.834Z,23.54
2019-05-26T04:28:39.824Z,22.67
2019-05-26T04:29:39.813Z,22.95
2019-05-26T04:30:39.801Z,23.63
2019-05-26T04:31:39.841Z,22.35
2019-05-26T04:32:39.788Z,22.62
2019-05-26T04:33:39.772Z,22.82
2019-05-26T04:34:39.764Z,23.51
2019-05-26T04:35:39.759Z,23.13
2019-05-26T04:36:39.744Z,23.81
2019-05-26T04:38:39.791Z,23.54
2019-05-26T04:39:39.716Z,25.01
2019-05-26T04:40:39.714Z,24.14
2019-05-26T04:41:39.693Z,23.85
2019-05-26T04:42:39.684Z,24.91
2019-05-26T04:43:39.673Z,23.93
2019-05-26T04:44:39.713Z,24.42
2019-05-26T04:45:39.654Z,24.23
2019-05-26T04:46:39.640Z,24.13
2019-05-26T04:47:39.638Z,23.63
2019-05-26T04:48:39.622Z,24.41
2019-05-26T04:49:40.013Z,23.81
2019-05-26T04:50:39.606Z,23.52
2019-05-26T04:51:39.595Z,23.22
2019-05-26T04:52:39.586Z,23.32
2019-05-26T04:53:39.572Z,23.51
2019-05-26T04:54:39.563Z,23.22
2019-05-26T04:55:39.601Z,23.32
2019-05-26T04:56:39.548Z,23.30
2019-05-26T04:57:39.556Z,23.60
2019-05-26T04:58:39.526Z,23.69
2019-05-26T04:59:39.518Z,23.50
2019-05-26T05:00:39.503Z,22.61
2019-05-26T05:01:39.542Z,23.88
2019-05-26T05:02:39.483Z,23.51
2019-05-26T05:03:39.476Z,23.61
2019-05-26T05:04:39.467Z,23.61
2019-05-26T05:05:39.457Z,23.70
2019-05-26T05:06:39.447Z,23.90
2019-05-26T05:07:39.584Z,23.81
2019-05-26T05:08:39.427Z,23.52
2019-05-26T05:09:39.418Z,23.51
2019-05-26T05:10:42.634Z,23.61
2019-05-26T05:11:39.402Z,23.22
2019-05-26T05:12:39.388Z,23.62
2019-05-26T05:13:39.433Z,22.66
2019-05-26T05:14:39.367Z,21.88
2019-05-26T05:15:39.358Z,22.08
2019-05-26T05:16:39.349Z,22.29
2019-05-26T05:17:39.341Z,22.79
2019-05-26T05:18:39.327Z,22.50
2019-05-26T05:19:39.370Z,24.26
2019-05-26T05:20:39.311Z,24.56
2019-05-26T05:21:39.299Z,22.99
2019-05-26T05:22:39.293Z,22.81
2019-05-26T05:23:39.278Z,22.24
2019-05-26T05:24:39.270Z,23.04
2019-05-26T05:25:39.411Z,24.41
2019-05-26T05:26:39.250Z,23.92
2019-05-26T05:27:39.240Z,25.68
2019-05-26T05:28:39.237Z,23.73
2019-05-26T05:29:39.225Z,24.80
2019-05-26T05:30:39.209Z,23.63
2019-05-26T05:31:39.250Z,22.85
2019-05-26T05:32:39.191Z,23.73
2019-05-26T05:33:39.180Z,25.68
2019-05-26T05:34:39.184Z,24.22
2019-05-26T05:35:39.159Z,24.81
2019-05-26T05:36:39.151Z,23.85
2019-05-26T05:37:39.188Z,24.84
2019-05-26T05:38:39.131Z,24.28
2019-05-26T05:39:39.117Z,25.29
2019-05-26T05:40:39.108Z,27.06
2019-05-26T05:41:39.097Z,26.50
2019-05-26T05:42:39.087Z,26.82
2019-05-26T05:43:39.225Z,27.05
2019-05-26T05:44:39.073Z,28.35
2019-05-26T05:45:39.055Z,28.76
2019-05-26T05:46:39.045Z,29.16
2019-05-26T05:47:39.035Z,29.59
2019-05-26T05:48:39.028Z,30.39
2019-05-26T05:49:39.115Z,30.01
2019-05-26T05:50:39.574Z,31.03
2019-05-26T05:51:38.994Z,31.03
2019-05-26T05:52:38.984Z,32.14
2019-05-26T05:53:38.976Z,32.34
2019-05-26T05:54:38.966Z,32.34
2019-05-26T05:55:39.006Z,33.75
2019-05-26T05:56:38.942Z,34.42
2019-05-26T05:57:38.971Z,33.73
2019-05-26T05:58:38.921Z,34.21
2019-05-26T05:59:38.911Z,33.80
2019-05-26T06:00:38.902Z,34.10
2019-05-26T06:01:39.043Z,33.96
2019-05-26T06:02:38.885Z,34.16
2019-05-26T06:03:38.869Z,32.68
2019-05-26T06:04:38.862Z,33.67
2019-05-26T06:05:38.909Z,33.37
2019-05-26T06:06:38.840Z,33.37
2019-05-26T06:07:38.931Z,32.31
2019-05-26T06:08:38.823Z,32.14
2019-05-26T06:09:38.818Z,33.04
2019-05-26T06:10:38.799Z,31.85
2019-05-26T06:11:38.791Z,31.46
2019-05-26T06:12:38.792Z,30.98
2019-05-26T06:13:38.822Z,31.59
2019-05-26T06:14:38.762Z,35.45
2019-05-26T06:15:38.755Z,35.45
2019-05-26T06:16:38.740Z,33.56
2019-05-26T06:17:38.730Z,35.55
2019-05-26T06:18:38.718Z,34.64
2019-05-26T06:19:38.957Z,34.44
2019-05-26T06:20:38.698Z,35.43
2019-05-26T06:21:38.687Z,34.03
2019-05-26T06:22:38.677Z,34.82
2019-05-26T06:23:38.668Z,34.33
2019-05-26T06:24:38.757Z,34.62
2019-05-26T06:25:38.649Z,34.62
2019-05-26T06:26:38.638Z,34.50
2019-05-26T06:27:38.628Z,34.11
2019-05-26T06:28:38.618Z,34.31
2019-05-26T06:29:38.659Z,34.71
2019-05-26T06:30:38.599Z,34.11
2019-05-26T06:31:38.639Z,34.62
2019-05-26T06:32:38.579Z,34.42
2019-05-26T06:33:38.567Z,32.26
2019-05-26T06:34:38.556Z,31.88
2019-05-26T06:35:38.597Z,31.42
2019-05-26T06:36:38.539Z,32.42
2019-05-26T06:37:38.526Z,33.63
2019-05-26T06:38:38.515Z,33.63
2019-05-26T06:39:38.509Z,33.14
2019-05-26T06:40:38.648Z,33.83
2019-05-26T06:41:38.484Z,35.62
2019-05-26T06:42:38.481Z,36.39
2019-05-26T06:43:38.528Z,36.27
2019-05-26T06:44:52.474Z,35.38
2019-05-26T06:45:39.590Z,34.79
2019-05-26T06:46:38.436Z,34.57
2019-05-26T06:47:38.451Z,35.98
2019-05-26T06:48:38.413Z,35.76
2019-05-26T06:49:38.403Z,35.57
2019-05-26T06:50:38.393Z,35.07
2019-05-26T06:51:38.433Z,33.19
2019-05-26T06:52:38.373Z,31.40
2019-05-26T06:53:38.361Z,31.02
2019-05-26T06:54:38.349Z,29.85
2019-05-26T06:55:38.344Z,29.86
2019-05-26T06:56:38.331Z,30.65
2019-05-26T06:57:38.471Z,31.17
2019-05-26T06:58:38.310Z,31.98
2019-05-26T06:59:38.299Z,31.89
2019-05-26T07:00:38.291Z,31.99
2019-05-26T07:01:38.278Z,32.39
2019-05-26T07:02:38.291Z,34.85
2019-05-26T07:04:38.345Z,35.26
2019-05-26T07:05:38.236Z,34.14
2019-05-26T07:06:38.222Z,33.53
2019-05-26T07:07:38.219Z,34.03
2019-05-26T07:08:38.201Z,32.44
2019-05-26T07:09:38.191Z,31.95
2019-05-26T07:10:38.231Z,33.83
2019-05-26T07:11:51.698Z,34.03
2019-05-26T07:13:02.974Z,33.12
2019-05-26T07:14:02.964Z,34.41
2019-05-26T07:15:02.951Z,31.34
2019-05-26T07:16:02.989Z,30.94
2019-05-26T07:17:02.932Z,31.53
2019-05-26T07:18:02.920Z,31.84
2019-05-26T07:19:02.908Z,35.20
2019-05-26T07:20:02.901Z,34.11
2019-05-26T07:21:02.896Z,35.20
2019-05-26T07:23:03.397Z,33.52
2019-05-26T07:24:02.855Z,35.40
2019-05-26T07:25:02.846Z,35.58
2019-05-26T07:26:02.833Z,32.51
2019-05-26T07:27:02.899Z,31.43
2019-05-26T07:28:02.816Z,31.63
2019-05-26T07:29:02.850Z,32.04
2019-05-26T07:30:02.790Z,33.14
2019-05-26T07:31:02.779Z,34.22
2019-05-26T07:32:02.912Z,35.60
2019-05-26T07:33:02.759Z,36.10
2019-05-26T07:34:02.748Z,35.99
2019-05-26T07:35:02.839Z,35.50
2019-05-26T07:36:02.729Z,35.38
2019-05-26T07:37:02.717Z,35.78
2019-05-26T07:38:02.707Z,35.78
2019-05-26T07:39:02.697Z,31.81
2019-05-26T07:40:02.683Z,34.69
2019-05-26T07:41:02.824Z,35.18
2019-05-26T07:42:10.024Z,33.80
2019-05-26T07:43:28.290Z,33.68
2019-05-26T07:44:27.455Z,33.80
2019-05-26T07:45:27.443Z,33.19
2019-05-26T07:46:27.530Z,34.47
2019-05-26T07:47:27.419Z,34.17
2019-05-26T07:48:27.411Z,33.88
2019-05-26T07:49:27.399Z,31.32
2019-05-26T07:50:27.391Z,31.71
2019-05-26T07:51:27.386Z,35.29
2019-05-26T07:52:27.467Z,35.29
2019-05-26T07:53:27.357Z,35.29
2019-05-26T07:54:27.345Z,35.08
2019-05-26T07:55:27.336Z,35.38
2019-05-26T07:56:27.331Z,34.19
2019-05-26T07:57:27.386Z,35.68
2019-05-26T07:58:27.555Z,32.41
2019-05-26T07:59:27.294Z,34.89
2019-05-26T08:00:27.281Z,35.17
2019-05-26T08:01:35.645Z,35.46
2019-05-26T08:02:52.076Z,33.88
2019-05-26T08:03:52.113Z,35.18
2019-05-26T08:04:52.050Z,31.91
2019-05-26T08:05:52.040Z,35.38
2019-05-26T08:06:52.033Z,32.11
2019-05-26T08:07:52.024Z,31.91
2019-05-26T08:08:52.008Z,35.48
2019-05-26T08:09:52.100Z,34.39
2019-05-26T08:10:51.995Z,34.10
2019-05-26T08:11:51.978Z,34.79
2019-05-26T08:12:51.967Z,35.68
2019-05-26T08:13:51.956Z,35.38
2019-05-26T08:14:51.945Z,35.29
2019-05-26T08:15:52.136Z,32.51
2019-05-26T08:16:51.924Z,35.17
2019-05-26T08:17:51.914Z,34.97
2019-05-26T08:18:51.902Z,32.79
2019-05-26T08:19:51.918Z,32.91
2019-05-26T08:20:51.880Z,31.71
2019-05-26T08:21:54.584Z,30.04
2019-05-26T08:22:51.861Z,30.54
2019-05-26T08:23:51.847Z,30.06
2019-05-26T08:24:51.840Z,31.15
2019-05-26T08:25:51.861Z,32.24
2019-05-26T08:26:51.820Z,31.35
2019-05-26T08:27:51.859Z,29.56
2019-05-26T08:28:51.797Z,29.27
2019-05-26T08:29:51.787Z,29.96
2019-05-26T08:30:51.826Z,29.16
2019-05-26T08:31:51.765Z,28.97
2019-05-26T08:32:51.755Z,29.76
2019-05-26T08:33:51.998Z,35.71
2019-05-26T08:34:51.737Z,35.30
2019-05-26T08:35:51.723Z,31.53
2019-05-26T08:36:51.712Z,31.63
2019-05-26T08:37:51.711Z,32.53
2019-05-26T08:38:51.701Z,34.10
2019-05-26T08:39:51.734Z,33.91
2019-05-26T08:40:51.673Z,28.05
2019-05-26T08:41:51.661Z,29.04
2019-05-26T08:42:51.651Z,29.54
2019-05-26T08:43:51.645Z,29.14
2019-05-26T08:44:51.629Z,28.96
2019-05-26T08:45:51.669Z,29.65
2019-05-26T08:46:51.613Z,29.25
2019-05-26T08:47:51.599Z,27.67
2019-05-26T08:48:51.589Z,28.67
2019-05-26T08:49:51.575Z,31.84
2019-05-26T08:50:51.567Z,31.73
2019-05-26T08:51:51.703Z,29.55
2019-05-26T08:52:51.545Z,27.27
2019-05-26T08:53:51.533Z,28.46
2019-05-26T08:54:51.525Z,28.17
2019-05-26T08:55:51.512Z,28.57
2019-05-26T08:56:51.506Z,28.57
2019-05-26T08:57:51.589Z,29.08
2019-05-26T08:58:51.481Z,29.07
2019-05-26T08:59:51.475Z,27.97
2019-05-26T09:00:51.464Z,28.17
2019-05-26T09:01:51.455Z,29.07
2019-05-26T09:02:51.439Z,29.16
2019-05-26T09:03:51.481Z,28.17
2019-05-26T09:04:51.455Z,28.97
2019-05-26T09:05:51.408Z,28.27
2019-05-26T09:06:51.399Z,27.88
2019-05-26T09:07:51.387Z,26.98
2019-05-26T09:08:51.377Z,26.98
2019-05-26T09:09:51.516Z,25.81
2019-05-26T09:10:51.355Z,26.89
2019-05-26T09:11:51.347Z,26.80
2019-05-26T09:13:00.871Z,26.31
2019-05-26T09:13:52.422Z,26.61
2019-05-26T09:14:51.319Z,27.31
2019-05-26T09:15:51.355Z,26.51
2019-05-26T09:16:51.293Z,26.61
2019-05-26T09:17:51.286Z,26.91
2019-05-26T09:18:51.277Z,26.71
2019-05-26T09:19:51.267Z,27.01
2019-05-26T09:20:51.254Z,26.80
2019-05-26T09:21:51.294Z,31.07
2019-05-26T09:22:51.236Z,29.56
2019-05-26T09:23:51.221Z,27.38
2019-05-26T09:24:51.210Z,27.08
2019-05-26T09:25:51.201Z,27.08
2019-05-26T09:26:51.193Z,27.38
2019-05-26T09:27:51.335Z,27.86
2019-05-26T09:28:51.170Z,28.06
2019-05-26T09:29:51.158Z,29.14
2019-05-26T09:30:51.153Z,27.55
2019-05-26T09:31:51.139Z,27.85
2019-05-26T09:33:51.168Z,29.93
2019-05-26T09:34:51.106Z,26.66
2019-05-26T09:35:51.095Z,26.76
2019-05-26T09:36:51.085Z,26.36
2019-05-26T09:37:51.075Z,26.56
2019-05-26T09:38:51.065Z,27.86
2019-05-26T09:39:51.105Z,27.77
2019-05-26T09:40:51.043Z,27.77
2019-05-26T09:41:51.031Z,28.25
2019-05-26T09:42:51.023Z,31.53
2019-05-26T09:43:51.012Z,27.06
2019-05-26T09:44:51.003Z,27.25
2019-05-26T09:45:51.149Z,27.35
2019-05-26T09:46:50.981Z,26.76
2019-05-26T09:47:50.971Z,27.06
2019-05-26T09:48:50.962Z,26.16
2019-05-26T09:49:50.947Z,26.76
2019-05-26T09:50:50.938Z,28.85
2019-05-26T09:51:50.978Z,28.14
2019-05-26T09:52:50.917Z,27.55
2019-05-26T09:54:01.186Z,28.06
2019-05-26T09:55:15.709Z,28.05
2019-05-26T09:56:15.699Z,28.44
2019-05-26T09:57:15.739Z,27.25
2019-05-26T09:58:15.674Z,28.16
2019-05-26T09:59:15.664Z,27.25
2019-05-26T10:00:16.336Z,27.66
2019-05-26T10:01:15.642Z,27.06
2019-05-26T10:02:15.631Z,27.37
2019-05-26T10:03:15.769Z,27.25
2019-05-26T10:04:15.610Z,26.97
2019-05-26T10:05:15.775Z,27.07
2019-05-26T10:06:15.587Z,27.47
2019-05-26T10:07:16.125Z,27.07
2019-05-26T10:08:15.566Z,31.12
2019-05-26T10:09:15.606Z,29.43
2019-05-26T10:10:15.544Z,27.54
2019-05-26T10:11:15.531Z,28.35
2019-05-26T10:12:15.523Z,30.82
2019-05-26T10:13:29.100Z,28.64
2019-05-26T10:14:40.359Z,29.12
2019-05-26T10:15:40.348Z,27.95
2019-05-26T10:16:40.338Z,29.04
2019-05-26T10:17:40.330Z,28.84
2019-05-26T10:18:40.316Z,27.85
2019-05-26T10:19:40.456Z,28.54
2019-05-26T10:20:40.295Z,27.06
2019-05-26T10:21:40.282Z,26.26
2019-05-26T10:22:40.287Z,27.25
2019-05-26T10:23:40.263Z,26.66
2019-05-26T10:24:40.251Z,26.84
2019-05-26T10:25:40.291Z,28.43
2019-05-26T10:26:40.234Z,31.90
2019-05-26T10:27:40.221Z,28.83
2019-05-26T10:28:40.210Z,29.02
2019-05-26T10:29:40.201Z,31.31
2019-05-26T10:30:40.187Z,30.51
2019-05-26T10:31:40.275Z,29.22
2019-05-26T10:32:40.167Z,28.61
2019-05-26T10:33:40.156Z,29.80
2019-05-26T10:34:40.147Z,28.81
2019-05-26T10:35:40.136Z,27.72
2019-05-26T10:36:40.124Z,27.52
2019-05-26T10:37:40.325Z,27.63
2019-05-26T10:38:40.101Z,29.90
2019-05-26T10:39:40.091Z,30.99
2019-05-26T10:40:40.077Z,32.20
2019-05-26T10:41:40.068Z,32.67
2019-05-26T10:43:47.437Z,32.39
2019-05-26T10:45:04.849Z,32.89
2019-05-26T10:46:04.837Z,30.91
2019-05-26T10:47:04.827Z,31.80
2019-05-26T10:48:04.815Z,31.90
2019-05-26T10:49:04.854Z,32.99
2019-05-26T10:50:04.795Z,30.51
2019-05-26T10:51:06.856Z,28.54
2019-05-26T10:52:04.774Z,29.91
2019-05-26T10:53:04.763Z,31.10
2019-05-26T10:54:04.754Z,32.69
2019-05-26T10:55:04.791Z,32.97
2019-05-26T10:56:04.730Z,31.60
2019-05-26T10:57:04.720Z,33.28
2019-05-26T10:58:04.710Z,31.88
2019-05-26T10:59:04.700Z,27.42
2019-05-26T11:00:04.939Z,29.80
2019-05-26T11:01:04.677Z,31.78
2019-05-26T11:02:04.666Z,31.78
2019-05-26T11:03:04.655Z,32.18
2019-05-26T11:04:04.644Z,32.77
2019-05-26T11:05:04.632Z,32.97
2019-05-26T11:06:04.675Z,31.68
2019-05-26T11:07:04.622Z,32.77
2019-05-26T11:08:04.607Z,32.08
2019-05-26T11:09:04.599Z,32.08
2019-05-26T11:10:04.583Z,32.97
2019-05-26T11:11:04.569Z,31.67
2019-05-26T11:12:04.662Z,29.29
2019-05-26T11:13:04.551Z,28.81
2019-05-26T11:14:04.542Z,27.81
2019-05-26T11:15:04.529Z,27.91
2019-05-26T11:16:04.531Z,27.41
2019-05-26T11:17:04.523Z,28.11
2019-05-26T11:18:04.647Z,27.71
2019-05-26T11:19:04.489Z,29.10
2019-05-26T11:20:04.477Z,27.02
2019-05-26T11:21:04.466Z,27.41
2019-05-26T11:22:04.456Z,27.31
2019-05-26T11:23:04.446Z,27.22
2019-05-26T11:24:04.536Z,27.11
2019-05-26T11:25:04.430Z,27.51
2019-05-26T11:26:04.413Z,27.03
2019-05-26T11:27:10.292Z,27.52
2019-05-26T11:28:05.485Z,27.83
2019-05-26T11:29:04.381Z,29.02
2019-05-26T11:30:04.419Z,28.13
2019-05-26T11:31:04.362Z,29.12
2019-05-26T11:32:04.353Z,28.35
2019-05-26T11:33:04.342Z,28.33
2019-05-26T11:34:04.332Z,27.85
2019-05-26T11:35:04.317Z,27.65
2019-05-26T11:37:04.576Z,28.05
2019-05-26T11:38:04.288Z,28.14
2019-05-26T11:39:04.276Z,28.83
2019-05-26T11:40:04.264Z,29.02
2019-05-26T11:41:04.258Z,29.02
2019-05-26T11:42:12.725Z,29.42
2019-05-26T11:43:29.047Z,30.12
2019-05-26T11:44:29.035Z,28.72
2019-05-26T11:45:29.023Z,29.02
2019-05-26T11:46:29.010Z,28.94
2019-05-26T11:48:29.093Z,29.43
2019-05-26T11:49:28.980Z,29.24
2019-05-26T11:50:28.972Z,29.73
2019-05-26T11:51:28.960Z,29.33
2019-05-26T11:52:28.946Z,29.24
2019-05-26T11:53:28.936Z,28.84
2019-05-26T11:54:29.081Z,28.43
2019-05-26T11:55:28.917Z,28.53
2019-05-26T11:56:28.906Z,28.83
2019-05-26T11:57:28.915Z,30.81
2019-05-26T11:58:28.883Z,31.60
2019-05-26T11:59:28.876Z,31.19
2019-05-26T12:00:28.911Z,30.91
2019-05-26T12:01:28.849Z,31.88
2019-05-26T12:02:28.842Z,32.49
2019-05-26T12:03:28.830Z,31.10
2019-05-26T12:04:28.819Z,29.41
2019-05-26T12:05:28.807Z,30.10
2019-05-26T12:06:28.898Z,31.49
2019-05-26T12:07:28.818Z,29.70
2019-05-26T12:08:28.773Z,28.71
2019-05-26T12:09:28.870Z,29.31
2019-05-26T12:10:28.754Z,30.10
2019-05-26T12:11:28.743Z,31.09
2019-05-26T12:12:28.882Z,29.21
2019-05-26T12:13:28.721Z,31.59
2019-05-26T12:14:34.886Z,29.01
2019-05-26T12:15:53.513Z,30.79
2019-05-26T12:16:53.506Z,31.88
2019-05-26T12:17:53.588Z,30.20
2019-05-26T12:18:53.482Z,29.51
2019-05-26T12:19:53.471Z,30.30
2019-05-26T12:20:53.456Z,28.81
2019-05-26T12:21:53.450Z,28.61
2019-05-26T12:22:53.438Z,29.11
2019-05-26T12:23:55.111Z,29.02
2019-05-26T12:24:53.416Z,30.00
2019-05-26T12:25:53.402Z,30.31
2019-05-26T12:26:53.393Z,28.63
2019-05-26T12:27:53.379Z,27.83
2019-05-26T12:28:53.369Z,28.12
2019-05-26T12:29:53.558Z,28.63
2019-05-26T12:30:53.348Z,28.13
2019-05-26T12:31:53.337Z,28.93
2019-05-26T12:32:53.327Z,27.04
2019-05-26T12:33:53.313Z,27.14
2019-05-26T12:34:53.311Z,27.44
2019-05-26T12:35:53.343Z,27.16
2019-05-26T12:36:53.280Z,26.95
2019-05-26T12:37:53.269Z,27.16
2019-05-26T12:38:53.258Z,27.47
2019-05-26T12:39:53.251Z,27.27
2019-05-26T12:40:53.239Z,27.37
2019-05-26T12:41:53.280Z,28.16
2019-05-26T12:42:53.218Z,28.16
2019-05-26T12:43:53.206Z,27.96
2019-05-26T12:44:53.193Z,27.96
2019-05-26T12:45:53.184Z,28.06
2019-05-26T12:46:53.172Z,27.55
2019-05-26T12:47:53.310Z,28.06
2019-05-26T12:48:53.151Z,27.56
2019-05-26T12:49:53.143Z,28.06
2019-05-26T12:50:53.130Z,29.25
2019-05-26T12:51:53.116Z,27.75
2019-05-26T12:52:53.107Z,27.77
2019-05-26T12:53:53.147Z,27.25
2019-05-26T12:54:53.090Z,27.66
2019-05-26T12:55:53.074Z,27.85
2019-05-26T12:56:53.064Z,28.16
2019-05-26T12:57:53.053Z,28.05
2019-05-26T12:58:53.040Z,28.36
2019-05-26T12:59:53.079Z,27.86
2019-05-26T13:00:55.059Z,29.45
2019-05-26T13:01:53.060Z,29.25
2019-05-26T13:02:53.001Z,29.05
2019-05-26T13:03:52.986Z,29.25
2019-05-26T13:04:52.975Z,28.96
2019-05-26T13:05:53.117Z,29.25
2019-05-26T13:06:52.952Z,29.85